Time;durP1;ratioP1;P1;durP2;ratioP2;P2;SDS_P1;SDS_P2;PMS_P1;PMS_P2;Temp;Humidity;BMP_temperature;BMP_pressure;BME280_temperature;BME280_humidity;BME280_pressure;Samples;Min_cycle;Max_cycle;Signal;HPM_P1;HPM_P2
2022/12/14 00:01:33;;;;;;;23.55;13.75;;;;;;;;;;4943201;29;20033;-95
2022/12/14 00:03:59;;;;;;;23.15;13.93;;;;;;;;;;4943583;29;20078;-94
2022/12/14 00:06:29;;;;;;;26.38;13.50;;;;;;;;;;4960511;29;20047;-95
2022/12/14 00:08:56;;;;;;;24.20;14.57;;;;;;;;;;4960066;29;20031;-94
2022/12/14 00:11:22;;;;;;;24.00;14.75;;;;;;;;;;4959355;29;20026;-94
2022/12/14 00:13:59;;;;;;;22.83;14.07;;;;;;;;;;4942641;29;20399;-95
2022/12/14 00:16:26;;;;;;;23.90;13.82;;;;;;;;;;4959216;29;20439;-94
2022/12/14 00:18:53;;;;;;;24.60;14.65;;;;;;;;;;4942649;29;20023;-95
2022/12/14 00:21:20;;;;;;;23.23;14.07;;;;;;;;;;4959612;29;20032;-94
2022/12/14 00:23:46;;;;;;;20.08;13.30;;;;;;;;;;4959583;29;20043;-94
2022/12/14 00:26:16;;;;;;;21.92;13.30;;;;;;;;;;4959674;29;20027;-95
2022/12/14 00:28:43;;;;;;;21.50;13.85;;;;;;;;;;4959196;29;20458;-93
2022/12/14 00:31:09;;;;;;;24.08;14.52;;;;;;;;;;4959534;29;20099;-94
2022/12/14 00:33:35;;;;;;;22.05;14.02;;;;;;;;;;4959321;29;20433;-95
2022/12/14 00:36:02;;;;;;;23.02;14.10;;;;;;;;;;4959560;29;20031;-95
2022/12/14 00:38:28;;;;;;;20.70;13.73;;;;;;;;;;4959461;29;20394;-94
2022/12/14 00:40:54;;;;;;;22.52;14.60;;;;;;;;;;4942463;29;20066;-94
2022/12/14 00:43:21;;;;;;;23.45;14.27;;;;;;;;;;4959634;29;20028;-96
2022/12/14 00:45:47;;;;;;;22.60;14.60;;;;;;;;;;4959288;29;20032;-94
2022/12/14 00:48:13;;;;;;;24.33;14.27;;;;;;;;;;4959093;29;20031;-94
2022/12/14 00:50:40;;;;;;;24.38;14.50;;;;;;;;;;4942264;29;20023;-94
2022/12/14 00:53:06;;;;;;;27.58;15.57;;;;;;;;;;4959563;29;20351;-96
2022/12/14 00:55:41;;;;;;;23.75;15.02;;;;;;;;;;4959133;29;20030;-95
2022/12/14 00:58:09;;;;;;;23.88;15.10;;;;;;;;;;4960359;28;20030;-94
2022/12/14 01:00:35;;;;;;;25.40;15.25;;;;;;;;;;4963658;29;20034;-95
2022/12/14 01:03:01;;;;;;;26.20;15.80;;;;;;;;;;4946636;29;20031;-95
2022/12/14 01:05:28;;;;;;;22.58;14.15;;;;;;;;;;4963499;29;20075;-95
2022/12/14 01:07:54;;;;;;;25.02;15.23;;;;;;;;;;4946199;29;20118;-94
2022/12/14 01:10:20;;;;;;;25.88;15.38;;;;;;;;;;4963819;29;20074;-95
2022/12/14 01:12:46;;;;;;;31.98;18.33;;;;;;;;;;4963522;29;20027;-94
2022/12/14 01:15:12;;;;;;;31.77;18.13;;;;;;;;;;4963042;29;20106;-94
2022/12/14 01:17:38;;;;;;;33.05;18.73;;;;;;;;;;4946265;29;20051;-95
2022/12/14 01:20:05;;;;;;;48.17;22.35;;;;;;;;;;4976361;28;20049;-95
2022/12/14 01:22:31;;;;;;;34.55;17.95;;;;;;;;;;4982546;28;20240;-95
2022/12/14 01:24:57;;;;;;;26.27;14.73;;;;;;;;;;4982478;28;20106;-96
2022/12/14 01:27:23;;;;;;;28.48;15.57;;;;;;;;;;4982244;28;20023;-95
2022/12/14 01:29:49;;;;;;;22.95;14.95;;;;;;;;;;4981823;28;20031;-95
2022/12/14 01:32:15;;;;;;;25.33;15.32;;;;;;;;;;4965016;28;20023;-94
2022/12/14 01:34:41;;;;;;;22.75;13.77;;;;;;;;;;4981766;28;20023;-95
2022/12/14 01:37:07;;;;;;;25.65;15.02;;;;;;;;;;4981390;28;20436;-95
2022/12/14 01:39:33;;;;;;;26.13;14.68;;;;;;;;;;4981360;28;20417;-94
2022/12/14 01:41:59;;;;;;;25.23;15.65;;;;;;;;;;4964624;28;20030;-94
2022/12/14 01:44:25;;;;;;;23.48;14.45;;;;;;;;;;4964587;28;20019;-95
2022/12/14 01:49:59;;;;;;;21.13;13.15;;;;;;;;;;4981447;28;20098;-94
2022/12/14 01:52:28;;;;;;;21.13;13.10;;;;;;;;;;4980920;28;20027;-96
2022/12/14 01:54:56;;;;;;;20.67;13.13;;;;;;;;;;4964126;28;20033;-94
2022/12/14 01:57:28;;;;;;;24.70;14.48;;;;;;;;;;4981347;28;20318;-95
2022/12/14 01:59:55;;;;;;;23.75;14.77;;;;;;;;;;4981255;28;20115;-94
2022/12/14 02:02:21;;;;;;;22.60;14.45;;;;;;;;;;4964200;28;20074;-93
2022/12/14 02:04:53;;;;;;;22.02;13.93;;;;;;;;;;4981495;28;20122;-94
2022/12/14 02:07:19;;;;;;;22.75;14.38;;;;;;;;;;4964008;28;20027;-94
2022/12/14 02:09:47;;;;;;;23.00;14.85;;;;;;;;;;4980684;28;20034;-94
2022/12/14 02:15:18;;;;;;;21.15;14.13;;;;;;;;;;4982489;28;20118;-95
2022/12/14 02:17:45;;;;;;;22.23;13.60;;;;;;;;;;4981342;28;20038;-94
2022/12/14 02:20:12;;;;;;;23.73;13.95;;;;;;;;;;4949847;29;20027;-95
2022/12/14 02:29:05;;;;;;;126.50;51.45;;;;;;;;;;4962062;29;20035;-96
2022/12/14 02:31:53;;;;;;;248.43;119.80;;;;;;;;;;4944082;29;20067;-94
2022/12/14 02:40:27;;;;;;;26.00;16.25;;;;;;;;;;4961605;29;20489;-94
2022/12/14 02:42:53;;;;;;;30.50;19.60;;;;;;;;;;4960895;29;20058;-94
2022/12/14 02:45:29;;;;;;;59.63;23.60;;;;;;;;;;4960769;29;20027;-94
2022/12/14 02:48:01;;;;;;;41.33;17.35;;;;;;;;;;4960598;29;20038;-95
2022/12/14 02:50:41;;;;;;;50.10;18.85;;;;;;;;;;4960717;29;20041;-93
2022/12/14 02:56:15;;;;;;;49.72;20.52;;;;;;;;;;4960929;29;20460;-94
2022/12/14 02:58:46;;;;;;;34.47;16.70;;;;;;;;;;4944095;29;20027;-95
2022/12/14 03:01:14;;;;;;;43.95;18.77;;;;;;;;;;4961412;29;20299;-94
2022/12/14 03:03:40;;;;;;;25.52;14.55;;;;;;;;;;4944333;29;20329;-96
2022/12/14 03:09:13;;;;;;;21.77;13.68;;;;;;;;;;4961130;29;20067;-94
2022/12/14 03:12:07;;;;;;;22.08;13.63;;;;;;;;;;4960555;29;20110;-95
2022/12/14 03:14:36;;;;;;;26.00;14.52;;;;;;;;;;4959949;29;20039;-94
2022/12/14 03:17:04;;;;;;;22.08;13.52;;;;;;;;;;4926450;29;20048;-95
2022/12/14 03:34:54;;;;;;;21.27;13.65;;;;;;;;;;4941539;29;20076;-95
2022/12/14 03:40:30;;;;;;;23.10;12.60;;;;;;;;;;4934956;29;20449;-94
2022/12/14 03:42:59;;;;;;;22.00;13.50;;;;;;;;;;4940880;29;20031;-94
2022/12/14 04:09:58;;;;;;;22.90;13.23;;;;;;;;;;4940946;29;20043;-95
2022/12/14 04:27:14;;;;;;;25.58;13.50;;;;;;;;;;4864219;29;20080;-94
2022/12/14 04:35:28;;;;;;;;;;;;;;;;;;4870443;29;20092;-95
2022/12/14 04:38:00;;;;;;;23.05;12.90;;;;;;;;;;4867170;29;20311;-94
2022/12/14 04:40:48;;;;;;;19.38;12.43;;;;;;;;;;4867668;29;20045;-93
2022/12/14 04:43:22;;;;;;;22.00;12.93;;;;;;;;;;4869063;29;20029;-95
2022/12/14 04:46:10;;;;;;;24.08;13.20;;;;;;;;;;4850633;29;20426;-95
2022/12/14 04:54:31;;;;;;;29.58;15.18;;;;;;;;;;5025204;23;20058;-96
2022/12/14 04:57:05;;;;;;;62.13;22.17;;;;;;;;;;4988002;28;20031;-96
2022/12/14 04:59:34;;;;;;;103.75;28.08;;;;;;;;;;4988292;28;20113;-95
2022/12/14 05:05:04;;;;;;;70.45;26.13;;;;;;;;;;4988496;28;20030;-96
2022/12/14 05:15:56;;;;;;;39.25;22.15;;;;;;;;;;5015034;23;20101;-96
2022/12/14 05:26:48;;;;;;;379.27;83.40;;;;;;;;;;5016895;23;20086;-96
2022/12/14 05:29:15;;;;;;;186.32;54.47;;;;;;;;;;4990556;28;20023;-94
2022/12/14 05:34:45;;;;;;;160.15;59.17;;;;;;;;;;4964836;23;20056;-96
2022/12/14 05:37:11;;;;;;;74.93;34.80;;;;;;;;;;4949623;29;20051;-96
2022/12/14 05:42:43;;;;;;;48.17;24.98;;;;;;;;;;5006530;23;20086;-96
2022/12/14 05:48:06;;;;;;;30.00;16.60;;;;;;;;;;5015095;23;20055;-95
2022/12/14 05:50:41;;;;;;;38.97;18.77;;;;;;;;;;4995079;23;20051;-95
2022/12/14 05:53:07;;;;;;;40.22;19.98;;;;;;;;;;4987810;28;20027;-95
2022/12/14 05:55:33;;;;;;;37.10;20.77;;;;;;;;;;4986849;28;20027;-96
2022/12/14 05:58:00;;;;;;;31.77;18.92;;;;;;;;;;4986543;28;20023;-95
2022/12/14 06:00:26;;;;;;;122.70;34.40;;;;;;;;;;4985603;28;20035;-95
2022/12/14 06:02:54;;;;;;;126.03;35.40;;;;;;;;;;4969473;28;20106;-94
2022/12/14 06:05:20;;;;;;;141.82;51.92;;;;;;;;;;4986416;28;20105;-95
2022/12/14 06:07:47;;;;;;;131.65;52.22;;;;;;;;;;4986068;28;20030;-95
2022/12/14 06:10:13;;;;;;;170.30;63.92;;;;;;;;;;4969950;28;20370;-95
2022/12/14 06:12:42;;;;;;;72.78;34.28;;;;;;;;;;4988023;28;20046;-95
2022/12/14 06:15:09;;;;;;;75.93;37.40;;;;;;;;;;4988486;28;20414;-96
2022/12/14 06:17:36;;;;;;;54.65;30.63;;;;;;;;;;4989472;28;20015;-96
2022/12/14 06:20:04;;;;;;;64.35;31.85;;;;;;;;;;4972731;28;20035;-96
2022/12/14 06:22:31;;;;;;;56.83;26.80;;;;;;;;;;4971358;28;20042;-96
2022/12/14 06:25:02;;;;;;;44.28;20.95;;;;;;;;;;4989941;28;20023;-96
2022/12/14 06:27:28;;;;;;;34.50;17.33;;;;;;;;;;4989236;28;20027;-94
2022/12/14 06:29:54;;;;;;;37.17;17.33;;;;;;;;;;4987799;28;20038;-95
2022/12/14 06:32:24;;;;;;;38.35;19.83;;;;;;;;;;4988267;28;20077;-95
2022/12/14 06:34:50;;;;;;;29.20;15.25;;;;;;;;;;4970172;28;20031;-95
2022/12/14 06:37:17;;;;;;;32.58;18.27;;;;;;;;;;4970283;28;20023;-94
2022/12/14 06:39:45;;;;;;;33.28;18.40;;;;;;;;;;4986823;28;20030;-96
2022/12/14 06:42:12;;;;;;;54.97;28.40;;;;;;;;;;4968744;28;20031;-96
2022/12/14 06:44:39;;;;;;;62.85;34.22;;;;;;;;;;4953848;28;20027;-95
2022/12/14 06:47:05;;;;;;;48.47;27.83;;;;;;;;;;4987611;28;20023;-96
2022/12/14 06:49:31;;;;;;;24.40;14.95;;;;;;;;;;4951417;28;20050;-95
2022/12/14 06:51:57;;;;;;;46.97;21.58;;;;;;;;;;4964858;28;20023;-95
2022/12/14 06:54:24;;;;;;;95.90;33.47;;;;;;;;;;4966225;28;20082;-96
2022/12/14 06:56:50;;;;;;;88.63;33.53;;;;;;;;;;4966790;28;20031;-95
2022/12/14 06:59:16;;;;;;;196.25;57.42;;;;;;;;;;4965983;28;20031;-95
2022/12/14 07:01:42;;;;;;;145.02;45.13;;;;;;;;;;4981224;28;20054;-96
2022/12/14 07:04:10;;;;;;;110.22;39.63;;;;;;;;;;4980132;28;20089;-94
2022/12/14 07:06:37;;;;;;;30.10;16.88;;;;;;;;;;4980875;28;20019;-95
2022/12/14 07:09:04;;;;;;;87.68;37.60;;;;;;;;;;4980239;28;20434;-95
2022/12/14 07:11:30;;;;;;;68.93;35.88;;;;;;;;;;4983653;28;20027;-96
2022/12/14 07:14:04;;;;;;;102.10;37.00;;;;;;;;;;4967121;28;20069;-96
2022/12/14 07:16:31;;;;;;;50.22;21.63;;;;;;;;;;4982390;28;20019;-96
2022/12/14 07:18:57;;;;;;;49.47;24.38;;;;;;;;;;4964487;28;20031;-96
2022/12/14 07:21:24;;;;;;;50.30;26.38;;;;;;;;;;4964596;28;20042;-96
2022/12/14 07:23:53;;;;;;;50.30;24.40;;;;;;;;;;4980545;28;20436;-95
2022/12/14 07:26:20;;;;;;;30.77;18.55;;;;;;;;;;4980516;28;20046;-95
2022/12/14 07:28:47;;;;;;;28.02;16.63;;;;;;;;;;4978946;28;20034;-95
2022/12/14 07:31:14;;;;;;;32.30;19.55;;;;;;;;;;4979673;28;20023;-95
2022/12/14 07:33:40;;;;;;;33.40;17.50;;;;;;;;;;4978665;28;20472;-96
2022/12/14 07:36:08;;;;;;;33.63;20.00;;;;;;;;;;4978875;28;20027;-94
2022/12/14 07:38:35;;;;;;;28.92;16.10;;;;;;;;;;4979377;28;20023;-94
2022/12/14 07:41:05;;;;;;;31.83;17.17;;;;;;;;;;4979238;28;20027;-94
2022/12/14 07:43:31;;;;;;;32.30;18.13;;;;;;;;;;4979188;28;20106;-94
2022/12/14 07:46:01;;;;;;;30.95;17.08;;;;;;;;;;4978404;28;20030;-94
2022/12/14 07:48:27;;;;;;;32.30;18.00;;;;;;;;;;4977631;28;20038;-95
2022/12/14 07:50:53;;;;;;;28.67;15.70;;;;;;;;;;4977920;28;20133;-94
2022/12/14 07:53:19;;;;;;;28.80;16.38;;;;;;;;;;4979244;28;20118;-94
2022/12/14 07:55:45;;;;;;;36.45;19.15;;;;;;;;;;4978159;28;20034;-95
2022/12/14 07:58:11;;;;;;;62.40;29.35;;;;;;;;;;4980147;28;20027;-96
2022/12/14 08:00:37;;;;;;;58.97;27.45;;;;;;;;;;4978944;28;20027;-95
2022/12/14 08:03:04;;;;;;;42.63;20.70;;;;;;;;;;4979964;28;20038;-95
2022/12/14 08:05:30;;;;;;;39.60;19.27;;;;;;;;;;4978206;28;20426;-96
2022/12/14 08:07:56;;;;;;;45.92;22.20;;;;;;;;;;4978309;28;20029;-95
2022/12/14 08:10:22;;;;;;;53.13;23.42;;;;;;;;;;4977799;28;20030;-95
2022/12/14 08:12:49;;;;;;;56.58;24.20;;;;;;;;;;4977932;28;20027;-94
2022/12/14 08:15:15;;;;;;;43.38;22.23;;;;;;;;;;4977789;28;20062;-95
2022/12/14 08:17:41;;;;;;;67.15;33.30;;;;;;;;;;4977754;28;20031;-94
2022/12/14 08:20:08;;;;;;;43.72;23.08;;;;;;;;;;4978720;28;20062;-95
2022/12/14 08:22:34;;;;;;;42.85;21.73;;;;;;;;;;4977697;28;20038;-95
2022/12/14 08:25:00;;;;;;;34.65;18.75;;;;;;;;;;4979076;28;20379;-95
2022/12/14 08:27:26;;;;;;;39.33;21.42;;;;;;;;;;4978876;28;20070;-94
2022/12/14 08:29:52;;;;;;;37.42;19.10;;;;;;;;;;4961758;28;20361;-93
2022/12/14 08:32:18;;;;;;;40.95;22.65;;;;;;;;;;4961521;28;20062;-94
2022/12/14 08:34:45;;;;;;;37.85;20.15;;;;;;;;;;4979037;28;20019;-95
2022/12/14 08:37:11;;;;;;;37.58;19.40;;;;;;;;;;4961677;28;20034;-94
2022/12/14 08:39:37;;;;;;;40.20;21.42;;;;;;;;;;4961632;28;20023;-95
2022/12/14 08:42:03;;;;;;;29.10;16.05;;;;;;;;;;4978131;28;20030;-94
2022/12/14 08:44:29;;;;;;;28.10;15.50;;;;;;;;;;4961809;28;20329;-95
2022/12/14 08:46:55;;;;;;;30.65;15.95;;;;;;;;;;4961589;28;20035;-95
2022/12/14 08:49:21;;;;;;;22.88;14.02;;;;;;;;;;4978155;28;20027;-94
2022/12/14 08:51:47;;;;;;;31.25;15.68;;;;;;;;;;4961174;28;20035;-94
2022/12/14 08:54:13;;;;;;;33.88;17.80;;;;;;;;;;4961648;28;20406;-95
2022/12/14 08:56:39;;;;;;;29.75;18.13;;;;;;;;;;4978554;28;20023;-94
2022/12/14 08:59:05;;;;;;;28.75;16.73;;;;;;;;;;4961803;28;20038;-95
2022/12/14 09:01:31;;;;;;;31.35;17.63;;;;;;;;;;4980256;28;20081;-91
2022/12/14 09:04:03;;;;;;;32.20;18.67;;;;;;;;;;4979099;28;20082;-94
2022/12/14 09:06:32;;;;;;;74.07;25.40;;;;;;;;;;4979984;28;20029;-95
2022/12/14 09:08:58;;;;;;;62.20;25.38;;;;;;;;;;4962163;28;20040;-95
2022/12/14 09:11:28;;;;;;;58.97;25.33;;;;;;;;;;4980637;28;20097;-96
2022/12/14 09:13:54;;;;;;;50.08;23.10;;;;;;;;;;4979991;28;20023;-95
2022/12/14 09:16:21;;;;;;;41.25;19.70;;;;;;;;;;4979116;28;20114;-95
2022/12/14 09:18:57;;;;;;;52.10;23.10;;;;;;;;;;4966176;28;20031;-95
2022/12/14 09:21:23;;;;;;;48.80;22.65;;;;;;;;;;4987297;28;20050;-96
2022/12/14 09:23:49;;;;;;;63.50;26.58;;;;;;;;;;4968286;28;20035;-94
2022/12/14 09:26:22;;;;;;;75.07;26.75;;;;;;;;;;4968308;28;20135;-95
2022/12/14 09:28:49;;;;;;;70.38;27.52;;;;;;;;;;4968604;28;20417;-95
2022/12/14 09:31:58;;;;;;;94.60;29.48;;;;;;;;;;4972963;28;20039;-95
2022/12/14 09:34:33;;;;;;;75.80;28.67;;;;;;;;;;4988550;28;20023;-94
2022/12/14 09:40:06;;;;;;;41.03;19.20;;;;;;;;;;4991217;28;20091;-94
2022/12/14 09:48:21;;;;;;;;;;;;;;;;;;5018301;23;20059;-95
2022/12/14 09:50:56;;;;;;;41.97;19.30;;;;;;;;;;4994921;28;19894;-96
2022/12/14 09:53:25;;;;;;;44.92;18.08;;;;;;;;;;5019186;23;20086;-96
2022/12/14 10:01:29;;;;;;;32.67;16.90;;;;;;;;;;5189776;23;20046;-95
2022/12/14 11:34:59;;;;;;;24.80;13.32;;;;;;;;;;846108;23;20236;-97
2022/12/14 11:37:30;;;;;;;25.33;13.20;;;;;;;;;;4977423;28;20062;-95
2022/12/14 11:40:00;;;;;;;21.58;13.15;;;;;;;;;;4979436;28;20038;-95
2022/12/14 11:42:27;;;;;;;21.17;11.85;;;;;;;;;;4978611;28;20021;-93
2022/12/14 11:44:53;;;;;;;31.25;16.00;;;;;;;;;;4979316;28;20291;-94
2022/12/14 11:47:25;;;;;;;32.67;16.02;;;;;;;;;;4979131;28;20050;-94
2022/12/14 11:49:53;;;;;;;36.75;16.80;;;;;;;;;;4962070;28;20027;-94
2022/12/14 11:52:23;;;;;;;38.38;18.55;;;;;;;;;;4962004;28;20035;-93
2022/12/14 11:54:52;;;;;;;39.92;17.98;;;;;;;;;;4979287;28;20019;-93
2022/12/14 11:57:21;;;;;;;34.80;15.27;;;;;;;;;;4979205;28;20050;-93
2022/12/14 11:59:53;;;;;;;29.55;15.13;;;;;;;;;;4962104;28;20414;-93
2022/12/14 12:02:19;;;;;;;34.40;17.30;;;;;;;;;;4979194;28;20042;-94
2022/12/14 12:04:47;;;;;;;30.40;16.75;;;;;;;;;;4979332;28;20413;-93
2022/12/14 12:07:34;;;;;;;25.67;13.88;;;;;;;;;;4979154;28;20035;-94
2022/12/14 12:10:05;;;;;;;24.63;15.15;;;;;;;;;;4978593;28;20026;-95
2022/12/14 12:12:31;;;;;;;24.17;15.00;;;;;;;;;;4962703;28;20051;-95
2022/12/14 12:14:59;;;;;;;27.23;15.65;;;;;;;;;;4963359;28;20046;-91
2022/12/14 12:17:43;;;;;;;31.50;16.50;;;;;;;;;;4962491;28;20023;-95
2022/12/14 12:20:20;;;;;;;30.48;16.80;;;;;;;;;;4979546;28;20127;-94
2022/12/14 12:22:47;;;;;;;33.45;18.80;;;;;;;;;;4964630;28;20082;-91
2022/12/14 12:25:14;;;;;;;32.95;17.63;;;;;;;;;;4982920;28;20070;-94
2022/12/14 12:27:40;;;;;;;36.35;19.30;;;;;;;;;;4980971;28;20318;-93
2022/12/14 12:33:19;;;;;;;41.55;18.45;;;;;;;;;;4985451;28;20058;-95
2022/12/14 12:35:49;;;;;;;37.67;19.80;;;;;;;;;;4980495;28;20086;-91
2022/12/14 12:38:40;;;;;;;34.33;18.40;;;;;;;;;;4981851;28;20035;-96
2022/12/14 12:41:06;;;;;;;30.20;17.00;;;;;;;;;;4983711;28;20033;-94
2022/12/14 12:43:52;;;;;;;36.65;20.10;;;;;;;;;;4979763;28;20039;-95
2022/12/14 12:46:20;;;;;;;28.52;16.50;;;;;;;;;;4978345;28;20058;-95
2022/12/14 12:48:51;;;;;;;28.45;16.40;;;;;;;;;;4978643;28;20034;-95
2022/12/14 12:51:28;;;;;;;31.40;16.15;;;;;;;;;;4978576;28;20031;-93
2022/12/14 12:54:05;;;;;;;33.33;17.02;;;;;;;;;;4963091;28;20030;-96
2022/12/14 12:56:50;;;;;;;30.40;18.42;;;;;;;;;;4965306;28;20032;-94
2022/12/14 12:59:21;;;;;;;25.80;14.80;;;;;;;;;;4965114;28;20030;-95
2022/12/14 13:01:49;;;;;;;28.48;16.08;;;;;;;;;;4965411;28;20464;-95
2022/12/14 13:04:23;;;;;;;26.27;15.25;;;;;;;;;;4982384;28;20357;-95
2022/12/14 13:06:52;;;;;;;25.77;15.00;;;;;;;;;;4982136;28;20110;-95
2022/12/14 13:09:38;;;;;;;25.77;15.95;;;;;;;;;;4964489;28;20030;-94
2022/12/14 13:12:06;;;;;;;28.67;15.18;;;;;;;;;;4981861;28;20054;-96
2022/12/14 13:14:42;;;;;;;24.38;13.73;;;;;;;;;;4981907;28;20062;-94
2022/12/14 13:17:23;;;;;;;25.05;13.82;;;;;;;;;;4981945;28;20038;-96
2022/12/14 13:19:50;;;;;;;35.42;20.02;;;;;;;;;;4981749;28;20396;-94
2022/12/14 13:22:20;;;;;;;25.90;15.10;;;;;;;;;;4982259;28;20029;-95
2022/12/14 13:24:47;;;;;;;26.65;14.63;;;;;;;;;;4981872;28;20019;-93
2022/12/14 13:27:30;;;;;;;29.27;14.73;;;;;;;;;;4964628;28;20026;-93
2022/12/14 13:30:16;;;;;;;25.05;14.70;;;;;;;;;;4964517;28;20086;-94
2022/12/14 13:33:02;;;;;;;20.98;13.43;;;;;;;;;;4981723;28;20031;-94
2022/12/14 13:35:53;;;;;;;29.52;16.48;;;;;;;;;;4964253;28;20418;-95
2022/12/14 13:38:19;;;;;;;29.98;15.77;;;;;;;;;;4964486;28;20362;-91
2022/12/14 13:41:05;;;;;;;32.22;17.15;;;;;;;;;;4981753;28;20027;-93
2022/12/14 13:43:41;;;;;;;32.60;16.45;;;;;;;;;;4981808;28;20038;-95
2022/12/14 13:46:13;;;;;;;30.48;16.27;;;;;;;;;;4981302;28;20042;-93
2022/12/14 13:48:40;;;;;;;25.95;14.23;;;;;;;;;;4964599;28;20026;-93
2022/12/14 13:51:08;;;;;;;34.85;16.83;;;;;;;;;;4964204;28;20043;-94
2022/12/14 13:53:36;;;;;;;30.50;14.70;;;;;;;;;;4981406;28;20473;-95
2022/12/14 13:56:03;;;;;;;36.50;16.73;;;;;;;;;;4964173;28;20299;-95
2022/12/14 13:58:45;;;;;;;42.30;19.75;;;;;;;;;;4981280;28;20023;-94
2022/12/14 14:01:15;;;;;;;38.90;18.63;;;;;;;;;;4981208;28;20023;-94
2022/12/14 14:03:42;;;;;;;42.45;20.05;;;;;;;;;;4964354;28;20065;-93
2022/12/14 14:06:29;;;;;;;34.33;17.92;;;;;;;;;;4980272;28;20055;-92
2022/12/14 14:08:55;;;;;;;39.90;20.60;;;;;;;;;;4980439;28;20035;-94
2022/12/14 14:11:27;;;;;;;46.60;27.48;;;;;;;;;;4963837;28;20033;-94
2022/12/14 14:14:07;;;;;;;41.53;23.05;;;;;;;;;;4981143;28;20046;-94
2022/12/14 14:16:38;;;;;;;33.65;19.00;;;;;;;;;;4964034;28;20329;-95
2022/12/14 14:19:04;;;;;;;129.18;39.33;;;;;;;;;;4963751;28;20023;-93
2022/12/14 14:21:32;;;;;;;186.40;54.75;;;;;;;;;;4980968;28;20104;-92
2022/12/14 14:23:59;;;;;;;159.30;39.65;;;;;;;;;;4981033;28;20067;-93
2022/12/14 14:26:34;;;;;;;84.97;28.00;;;;;;;;;;4981634;28;20023;-91
2022/12/14 14:29:19;;;;;;;103.60;29.65;;;;;;;;;;4986496;28;20026;-96
2022/12/14 14:32:04;;;;;;;103.20;30.10;;;;;;;;;;4980014;28;20069;-92
2022/12/14 14:34:33;;;;;;;69.68;22.60;;;;;;;;;;4963673;28;20033;-92
2022/12/14 14:37:00;;;;;;;79.35;24.35;;;;;;;;;;4963040;28;20323;-92
2022/12/14 14:39:37;;;;;;;75.57;23.08;;;;;;;;;;4980356;28;20030;-92
2022/12/14 14:42:04;;;;;;;93.80;29.33;;;;;;;;;;4980253;28;20030;-92
2022/12/14 14:44:43;;;;;;;91.28;28.35;;;;;;;;;;4980335;28;20023;-92
2022/12/14 14:47:14;;;;;;;100.63;28.85;;;;;;;;;;4980106;28;20078;-91
2022/12/14 14:49:41;;;;;;;79.30;26.25;;;;;;;;;;4962675;28;20098;-92
2022/12/14 14:52:33;;;;;;;68.63;22.13;;;;;;;;;;4980022;28;20031;-91
2022/12/14 14:55:19;;;;;;;74.68;22.02;;;;;;;;;;4963117;28;20023;-91
2022/12/14 14:57:58;;;;;;;52.38;20.02;;;;;;;;;;4980124;28;20034;-91
2022/12/14 15:00:24;;;;;;;51.35;19.20;;;;;;;;;;4962585;28;20070;-91
2022/12/14 15:02:52;;;;;;;49.33;23.27;;;;;;;;;;4980162;28;20027;-91
2022/12/14 15:05:21;;;;;;;142.75;37.75;;;;;;;;;;4979820;28;20030;-92
2022/12/14 15:07:47;;;;;;;77.78;22.85;;;;;;;;;;4979737;28;20042;-93
2022/12/14 15:10:22;;;;;;;73.28;22.98;;;;;;;;;;4962600;28;20432;-92
2022/12/14 15:12:50;;;;;;;117.13;40.42;;;;;;;;;;4979753;28;20058;-91
2022/12/14 15:15:26;;;;;;;46.38;23.65;;;;;;;;;;4979597;28;20019;-92
2022/12/14 15:17:52;;;;;;;38.30;21.02;;;;;;;;;;4978596;28;20030;-92
2022/12/14 15:20:26;;;;;;;51.00;25.35;;;;;;;;;;4979425;28;20026;-92
2022/12/14 15:22:54;;;;;;;60.33;30.42;;;;;;;;;;4979958;28;20034;-93
2022/12/14 15:25:25;;;;;;;52.17;23.60;;;;;;;;;;4979522;28;20037;-91
2022/12/14 15:27:52;;;;;;;32.85;18.90;;;;;;;;;;4962391;28;20054;-91
2022/12/14 15:30:19;;;;;;;45.67;23.65;;;;;;;;;;4979377;28;20114;-92
2022/12/14 15:32:50;;;;;;;45.10;22.80;;;;;;;;;;4962600;28;20054;-91
2022/12/14 15:35:19;;;;;;;50.00;23.05;;;;;;;;;;4979374;28;20027;-93
2022/12/14 15:37:50;;;;;;;58.53;25.13;;;;;;;;;;4962443;28;20053;-95
2022/12/14 15:40:26;;;;;;;59.22;25.20;;;;;;;;;;4979554;28;20329;-95
2022/12/14 15:42:53;;;;;;;56.05;24.45;;;;;;;;;;4962265;28;20027;-95
2022/12/14 15:45:21;;;;;;;55.72;22.30;;;;;;;;;;4979276;28;20053;-95
2022/12/14 15:47:47;;;;;;;50.88;22.88;;;;;;;;;;4979167;28;20022;-95
2022/12/14 15:50:38;;;;;;;67.43;26.35;;;;;;;;;;4979114;28;20102;-96
2022/12/14 15:53:10;;;;;;;68.88;26.98;;;;;;;;;;4978978;28;20027;-95
2022/12/14 15:55:38;;;;;;;63.35;26.25;;;;;;;;;;4961991;28;20026;-93
2022/12/14 15:58:16;;;;;;;62.00;26.48;;;;;;;;;;4979203;28;20102;-93
2022/12/14 16:00:45;;;;;;;47.85;21.83;;;;;;;;;;4962080;28;20023;-96
2022/12/14 16:03:31;;;;;;;66.10;28.65;;;;;;;;;;4979254;28;20043;-96
2022/12/14 16:05:58;;;;;;;61.33;25.33;;;;;;;;;;4962096;28;20117;-96
2022/12/14 16:08:24;;;;;;;78.68;27.92;;;;;;;;;;4961895;28;20034;-93
2022/12/14 16:10:52;;;;;;;94.10;31.95;;;;;;;;;;4978709;28;20034;-93
2022/12/14 16:13:29;;;;;;;83.38;27.67;;;;;;;;;;4961936;28;20023;-93
2022/12/14 16:15:55;;;;;;;64.60;29.17;;;;;;;;;;4978780;28;20311;-94
2022/12/14 16:18:22;;;;;;;61.53;28.17;;;;;;;;;;4978766;28;20019;-94
2022/12/14 16:20:55;;;;;;;70.10;32.10;;;;;;;;;;4978781;28;20365;-92
2022/12/14 16:23:24;;;;;;;69.28;32.30;;;;;;;;;;4978818;28;20023;-95
2022/12/14 16:25:52;;;;;;;71.28;32.47;;;;;;;;;;4974840;28;20086;-95
2022/12/14 16:28:23;;;;;;;54.53;27.20;;;;;;;;;;4972640;28;20031;-94
2022/12/14 16:30:59;;;;;;;70.28;32.70;;;;;;;;;;4965668;28;20030;-93
2022/12/14 16:33:28;;;;;;;56.92;29.55;;;;;;;;;;4965777;28;20023;-92
2022/12/14 16:36:02;;;;;;;58.17;29.92;;;;;;;;;;4982347;28;20058;-94
2022/12/14 16:38:31;;;;;;;39.58;21.40;;;;;;;;;;4965704;28;20026;-92
2022/12/14 16:41:01;;;;;;;38.60;20.48;;;;;;;;;;4982616;28;20026;-93
2022/12/14 16:43:54;;;;;;;45.65;24.10;;;;;;;;;;4965418;28;20057;-94
2022/12/14 16:46:25;;;;;;;38.42;20.90;;;;;;;;;;4951025;28;20046;-93
2022/12/14 16:49:10;;;;;;;47.72;24.88;;;;;;;;;;4982475;28;20056;-96
2022/12/14 16:51:39;;;;;;;41.78;22.85;;;;;;;;;;4982264;28;20034;-96
2022/12/14 16:54:25;;;;;;;42.45;22.15;;;;;;;;;;4965415;28;20087;-94
2022/12/14 16:56:55;;;;;;;37.58;21.60;;;;;;;;;;4964911;28;20026;-95
2022/12/14 16:59:30;;;;;;;41.33;22.08;;;;;;;;;;4979378;28;20023;-95
2022/12/14 17:01:56;;;;;;;37.70;20.65;;;;;;;;;;4957039;28;20057;-93
2022/12/14 17:04:25;;;;;;;35.08;19.38;;;;;;;;;;4965173;28;20302;-92
2022/12/14 17:06:52;;;;;;;36.95;19.92;;;;;;;;;;4965172;28;20027;-93
2022/12/14 17:09:24;;;;;;;38.55;20.52;;;;;;;;;;4963001;28;20078;-95
2022/12/14 17:11:55;;;;;;;41.45;21.63;;;;;;;;;;4945794;29;20027;-95
2022/12/14 17:14:21;;;;;;;36.33;20.08;;;;;;;;;;4963445;28;20023;-95
2022/12/14 17:16:48;;;;;;;38.25;19.65;;;;;;;;;;4958805;29;20026;-94
2022/12/14 17:19:29;;;;;;;41.83;22.20;;;;;;;;;;4964934;28;20321;-94
2022/12/14 17:21:56;;;;;;;38.03;20.90;;;;;;;;;;4964182;28;20035;-91
2022/12/14 17:24:25;;;;;;;40.30;21.08;;;;;;;;;;4957902;28;20070;-92
2022/12/14 17:26:51;;;;;;;32.92;19.30;;;;;;;;;;4974927;28;20370;-95
2022/12/14 17:29:17;;;;;;;50.15;21.77;;;;;;;;;;4964035;28;20059;-95
2022/12/14 17:31:47;;;;;;;32.25;17.88;;;;;;;;;;4945346;29;20031;-93
2022/12/14 17:34:16;;;;;;;36.75;20.00;;;;;;;;;;4962211;29;20433;-96
2022/12/14 17:36:42;;;;;;;33.90;19.13;;;;;;;;;;4962263;29;20050;-94
2022/12/14 17:39:08;;;;;;;35.60;19.45;;;;;;;;;;4944748;28;20027;-94
2022/12/14 17:41:36;;;;;;;30.30;16.92;;;;;;;;;;4944477;29;20067;-92
2022/12/14 17:44:02;;;;;;;31.02;18.42;;;;;;;;;;4945288;29;20035;-93
2022/12/14 17:46:28;;;;;;;30.65;16.70;;;;;;;;;;4945103;29;20329;-94
2022/12/14 17:48:54;;;;;;;29.75;16.13;;;;;;;;;;4945104;29;20035;-94
2022/12/14 17:54:24;;;;;;;30.17;17.65;;;;;;;;;;4962234;29;20041;-95
2022/12/14 17:56:50;;;;;;;30.17;17.02;;;;;;;;;;4944975;29;20023;-92
2022/12/14 17:59:16;;;;;;;28.08;17.25;;;;;;;;;;4961932;29;20027;-93
2022/12/14 18:01:42;;;;;;;30.55;17.27;;;;;;;;;;4945183;29;20023;-93
2022/12/14 18:04:08;;;;;;;30.45;17.58;;;;;;;;;;4961643;29;20031;-93
2022/12/14 18:06:34;;;;;;;30.05;17.10;;;;;;;;;;4944555;29;20111;-92
2022/12/14 18:09:00;;;;;;;32.72;16.88;;;;;;;;;;4961410;29;20054;-93
2022/12/14 18:11:27;;;;;;;29.88;17.50;;;;;;;;;;4961303;29;20031;-93
2022/12/14 18:13:53;;;;;;;32.15;17.52;;;;;;;;;;4961201;29;20418;-95
2022/12/14 18:16:20;;;;;;;28.60;16.42;;;;;;;;;;4961453;29;20407;-93
2022/12/14 18:18:46;;;;;;;28.27;16.13;;;;;;;;;;4944513;29;20024;-93
2022/12/14 18:21:15;;;;;;;26.98;16.20;;;;;;;;;;4961636;29;20030;-94
2022/12/14 18:23:41;;;;;;;24.50;15.25;;;;;;;;;;4961513;29;20019;-94
2022/12/14 18:26:08;;;;;;;35.95;20.10;;;;;;;;;;4944283;29;20027;-94